Aviation Digital Data Service (ADDS)

Output produced by METARs form (1743 UTC 25 February 2018)
found at http://aviationweather.gov/adds/metars/
 
KROA 251740Z 2518/2618 24009KT P6SM VCSH OVC110 
     FM252300 28005KT P6SM OVC150 
     FM261400 34004KT P6SM OVC050